Time;durP1;ratioP1;P1;durP2;ratioP2;P2;SDS_P1;SDS_P2;PMS_P1;PMS_P2;Temp;Humidity;BMP_temperature;BMP_pressure;BME280_temperature;BME280_humidity;BME280_pressure;Samples;Min_cycle;Max_cycle;Signal;HPM_P1;HPM_P2
2022/04/26 03:37:34;;;;;;;23.20;14.97;;;;;;;6.93;100.00;99573.94;4954328;28;20331;-70
2022/04/26 03:40:00;;;;;;;23.77;13.93;;;;;;;6.97;100.00;99577.97;4952920;28;20667;-68
2022/04/26 03:42:27;;;;;;;22.90;14.53;;;;;;;6.88;100.00;99582.31;4956084;28;20235;-68
2022/04/26 03:44:54;;;;;;;23.57;14.70;;;;;;;6.92;100.00;99583.69;4954909;28;20662;-69
2022/04/26 03:47:21;;;;;;;23.93;15.47;;;;;;;6.85;100.00;99581.75;4586812;28;20499;-68
2022/04/26 03:49:47;;;;;;;25.33;15.87;;;;;;;6.85;100.00;99587.03;4145253;28;21044;-71
2022/04/26 03:52:14;;;;;;;24.63;14.70;;;;;;;6.89;100.00;99585.78;4152672;28;20841;-69
2022/04/26 03:54:41;;;;;;;27.27;15.63;;;;;;;6.95;100.00;99582.56;4140481;28;20246;-70
2022/04/26 03:57:07;;;;;;;26.33;15.87;;;;;;;6.83;100.00;99595.09;4142799;28;22600;-70
2022/04/26 03:59:34;;;;;;;26.57;15.70;;;;;;;6.86;100.00;99589.56;4147469;28;20314;-70
2022/04/26 04:02:01;;;;;;;26.57;16.13;;;;;;;6.90;100.00;99595.38;4167116;28;20240;-70
2022/04/26 04:04:28;;;;;;;28.70;16.23;;;;;;;6.85;100.00;99594.97;4152362;28;20616;-69
2022/04/26 04:06:57;;;;;;;30.73;17.23;;;;;;;6.76;100.00;99594.84;4155237;28;25849;-69
2022/04/26 04:09:24;;;;;;;28.90;16.27;;;;;;;6.83;100.00;99594.28;4169349;28;20310;-70
2022/04/26 04:11:50;;;;;;;28.07;16.07;;;;;;;6.91;100.00;99605.00;4160147;28;20235;-71
2022/04/26 04:14:17;;;;;;;27.93;16.23;;;;;;;6.80;100.00;99603.34;4159478;28;20451;-68
2022/04/26 04:16:44;;;;;;;29.43;16.23;;;;;;;6.72;100.00;99598.75;4167483;28;23710;-69
2022/04/26 04:19:20;;;;;;;26.33;15.83;;;;;;;6.75;100.00;99611.69;4150653;28;20343;-69
2022/04/26 04:21:49;;;;;;;28.63;17.10;;;;;;;6.56;100.00;99609.06;4163260;28;23134;-69
2022/04/26 04:24:16;;;;;;;27.33;15.83;;;;;;;6.60;100.00;99610.44;4153829;28;20343;-70
2022/04/26 04:26:43;;;;;;;28.03;16.13;;;;;;;6.65;100.00;99610.88;4157577;28;20238;-70
2022/04/26 04:29:10;;;;;;;29.87;16.83;;;;;;;6.73;100.00;99621.56;4153562;28;20239;-69
2022/04/26 04:31:39;;;;;;;27.47;15.90;;;;;;;6.78;100.00;99622.97;4148564;28;20919;-69
2022/04/26 04:34:06;;;;;;;31.33;16.57;;;;;;;6.70;100.00;99624.50;4151716;28;20235;-70
2022/04/26 04:36:33;;;;;;;26.27;15.77;;;;;;;6.76;100.00;99626.56;4167625;28;20746;-69
2022/04/26 04:39:00;;;;;;;27.83;15.73;;;;;;;6.76;100.00;99634.50;4201152;28;25454;-70
2022/04/26 04:41:26;;;;;;;24.47;15.27;;;;;;;6.85;100.00;99634.66;4162999;28;22216;-69
2022/04/26 04:43:53;;;;;;;27.00;16.40;;;;;;;6.66;100.00;99633.69;4191607;28;20944;-68
2022/04/26 04:46:19;;;;;;;27.10;16.20;;;;;;;6.54;100.00;99640.09;4161156;28;20400;-69
2022/04/26 04:48:46;;;;;;;28.70;17.23;;;;;;;6.68;100.00;99639.66;4176297;28;24859;-67
2022/04/26 04:51:13;;;;;;;28.43;16.60;;;;;;;6.64;100.00;99643.56;4201534;28;21666;-68
2022/04/26 04:53:40;;;;;;;31.30;17.10;;;;;;;6.67;100.00;99640.66;4163033;28;20238;-69
2022/04/26 04:56:10;;;;;;;29.90;17.90;;;;;;;6.73;100.00;99647.19;4187997;28;21800;-71
2022/04/26 04:58:38;;;;;;;29.93;17.40;;;;;;;6.48;100.00;99648.56;4182631;28;23118;-68
2022/04/26 05:01:04;;;;;;;28.80;17.70;;;;;;;6.62;100.00;99650.78;4161609;28;20287;-69
2022/04/26 05:03:31;;;;;;;31.60;18.70;;;;;;;6.70;100.00;99653.59;4161718;28;22138;-70
2022/04/26 05:05:58;;;;;;;30.57;17.13;;;;;;;6.59;100.00;99651.06;4160186;28;20230;-66
2022/04/26 05:08:27;;;;;;;30.93;18.23;;;;;;;6.65;100.00;99654.97;4175206;28;22986;-66
2022/04/26 05:10:53;;;;;;;30.40;17.70;;;;;;;6.69;100.00;99651.91;4175427;28;20229;-68
2022/04/26 05:13:23;;;;;;;29.60;16.70;;;;;;;6.84;100.00;99660.25;4165336;28;22335;-67
2022/04/26 05:15:49;;;;;;;33.67;17.73;;;;;;;6.90;100.00;99664.16;4166211;28;20231;-69
2022/04/26 05:18:16;;;;;;;31.30;18.30;;;;;;;6.96;100.00;99664.41;4173825;28;20237;-69
2022/04/26 05:20:43;;;;;;;27.00;17.17;;;;;;;6.81;100.00;99660.53;4169001;28;20254;-68
2022/04/26 05:25:58;;;;;;;33.23;17.23;;;;;;;6.83;100.00;99668.31;4173637;28;21785;-69
2022/04/26 05:28:25;;;;;;;29.77;16.97;;;;;;;6.83;100.00;99670.97;4168833;28;23996;-67
2022/04/26 05:30:52;;;;;;;31.67;17.33;;;;;;;6.81;100.00;99675.56;4176280;28;20666;-66
2022/04/26 05:33:20;;;;;;;27.13;16.73;;;;;;;6.76;100.00;99671.50;4159671;28;20716;-68
2022/04/26 05:35:48;;;;;;;28.67;16.70;;;;;;;6.67;100.00;99675.03;4174290;28;21392;-67
2022/04/26 05:38:15;;;;;;;28.10;16.10;;;;;;;6.76;100.00;99676.81;4169245;28;20232;-66
2022/04/26 05:40:42;;;;;;;26.47;16.17;;;;;;;6.64;100.00;99675.28;4168396;28;22793;-69
2022/04/26 05:43:08;;;;;;;28.33;16.80;;;;;;;6.64;100.00;99680.56;4173442;28;20333;-69
2022/04/26 05:45:35;;;;;;;29.27;16.13;;;;;;;6.68;100.00;99687.25;4150712;28;20239;-68
2022/04/26 05:48:08;;;;;;;28.67;16.67;;;;;;;6.71;100.00;99686.97;4163816;28;21837;-69
2022/04/26 05:50:34;;;;;;;27.63;16.23;;;;;;;6.78;100.00;99686.44;4173414;28;20231;-70
2022/04/26 05:53:01;;;;;;;30.70;17.27;;;;;;;6.73;100.00;99692.97;4162586;28;20226;-70
2022/04/26 05:55:27;;;;;;;29.33;16.07;;;;;;;6.66;100.00;99691.84;4154800;28;21297;-71
2022/04/26 05:57:54;;;;;;;29.87;16.63;;;;;;;6.66;100.00;99702.41;4146940;28;20243;-69
2022/04/26 06:00:21;;;;;;;30.10;17.40;;;;;;;6.74;100.00;99697.28;4151119;28;20607;-68
2022/04/26 06:02:49;;;;;;;29.60;17.17;;;;;;;6.58;100.00;99701.44;4151559;28;20320;-62
2022/04/26 06:05:18;;;;;;;34.27;17.40;;;;;;;6.62;100.00;99702.81;4154450;28;20269;-72
2022/04/26 06:07:45;;;;;;;33.13;17.50;;;;;;;6.69;100.00;99709.22;4148125;28;20246;-69
2022/04/26 06:10:12;;;;;;;38.50;19.83;;;;;;;6.79;100.00;99701.31;4159856;28;20302;-70
2022/04/26 06:12:40;;;;;;;31.33;18.33;;;;;;;6.66;100.00;99710.34;4156458;28;25546;-68
2022/04/26 06:15:06;;;;;;;34.20;17.43;;;;;;;6.72;100.00;99706.34;4148384;28;21661;-69
2022/04/26 06:17:33;;;;;;;30.13;16.50;;;;;;;6.75;100.00;99712.16;4152684;28;20394;-71
2022/04/26 06:20:00;;;;;;;30.67;16.73;;;;;;;6.85;100.00;99709.53;4159106;28;20568;-70
2022/04/26 06:22:27;;;;;;;33.07;17.40;;;;;;;6.78;100.00;99715.50;4152573;28;23627;-69
2022/04/26 06:24:54;;;;;;;27.90;16.60;;;;;;;6.84;100.00;99723.72;4162344;28;20281;-70
2022/04/26 06:27:22;;;;;;;28.13;15.40;;;;;;;6.93;100.00;99725.53;4169270;28;20425;-68
2022/04/26 06:29:48;;;;;;;27.70;15.97;;;;;;;6.76;100.00;99716.47;4150991;28;20277;-71
2022/04/26 06:32:15;;;;;;;24.00;15.03;;;;;;;6.76;100.00;99721.75;4139193;28;20657;-70
2022/04/26 06:34:41;;;;;;;23.20;15.03;;;;;;;6.88;100.00;99725.13;4156032;28;20230;-73
2022/04/26 06:37:08;;;;;;;23.00;13.97;;;;;;;6.97;100.00;99726.91;4160090;28;20711;-72
2022/04/26 06:39:37;;;;;;;26.00;14.93;;;;;;;7.14;100.00;99730.69;4152930;28;20297;-71
2022/04/26 06:42:04;;;;;;;24.97;14.13;;;;;;;7.20;100.00;99729.28;4186434;28;24120;-69
2022/04/26 06:44:31;;;;;;;21.13;13.10;;;;;;;7.40;100.00;99730.09;4163421;28;23525;-71
2022/04/26 06:47:00;;;;;;;20.93;14.07;;;;;;;7.48;100.00;99735.50;4162278;28;20246;-69
2022/04/26 06:49:27;;;;;;;18.90;12.57;;;;;;;7.44;100.00;99741.22;4164224;28;20245;-69
2022/04/26 06:51:54;;;;;;;21.27;14.47;;;;;;;7.59;100.00;99743.28;4176477;28;20305;-70
2022/04/26 06:54:21;;;;;;;19.57;13.07;;;;;;;7.71;100.00;99743.97;4168932;28;20308;-70
2022/04/26 06:56:47;;;;;;;21.47;13.57;;;;;;;7.57;100.00;99750.53;4174301;28;22355;-69
2022/04/26 06:59:14;;;;;;;21.37;13.50;;;;;;;7.63;100.00;99743.84;4178038;28;20238;-72
2022/04/26 07:01:40;;;;;;;22.07;13.70;;;;;;;7.52;100.00;99750.16;4179756;28;22923;-73
2022/04/26 07:04:08;;;;;;;23.40;14.60;;;;;;;7.67;100.00;99757.63;4166270;28;20633;-71
2022/04/26 07:06:36;;;;;;;24.67;15.10;;;;;;;7.40;100.00;99752.09;4172223;28;23045;-73
2022/04/26 07:09:04;;;;;;;24.10;15.77;;;;;;;7.54;100.00;99753.47;4174012;28;20253;-71
2022/04/26 07:11:31;;;;;;;25.40;16.10;;;;;;;7.55;100.00;99757.78;4171659;28;20234;-71
2022/04/26 07:13:57;;;;;;;25.20;14.77;;;;;;;7.64;100.00;99757.94;4189986;28;20559;-72
2022/04/26 07:16:24;;;;;;;25.83;15.63;;;;;;;7.46;100.00;99756.00;4185095;28;20296;-71
2022/04/26 07:18:51;;;;;;;28.77;17.60;;;;;;;7.47;100.00;99762.97;4161979;28;21609;-70
2022/04/26 07:21:18;;;;;;;27.43;16.73;;;;;;;7.55;100.00;99759.59;4175733;28;20296;-74
2022/04/26 07:23:45;;;;;;;28.50;17.27;;;;;;;7.60;100.00;99760.84;4167997;28;20325;-74
2022/04/26 07:26:11;;;;;;;29.77;17.67;;;;;;;7.58;100.00;99770.72;4185221;28;20639;-73
2022/04/26 07:28:38;;;;;;;30.30;16.47;;;;;;;7.52;100.00;99770.50;4179805;28;21376;-73
2022/04/26 07:31:05;;;;;;;29.03;17.47;;;;;;;7.47;100.00;99775.34;4187179;28;20567;-73
2022/04/26 07:36:17;;;;;;;30.53;16.83;;;;;;;7.73;100.00;99784.38;4166555;28;20242;-73
2022/04/26 07:38:43;;;;;;;30.23;15.97;;;;;;;7.72;100.00;99787.16;4197468;28;20255;-75
2022/04/26 07:41:11;;;;;;;32.63;18.27;;;;;;;7.40;100.00;99788.34;4174129;28;20569;-74
2022/04/26 07:43:38;;;;;;;33.20;18.83;;;;;;;7.36;100.00;99782.47;4184735;28;20343;-73
2022/04/26 07:46:04;;;;;;;34.10;19.30;;;;;;;7.49;100.00;99787.50;4187884;28;20255;-71
2022/04/26 07:48:31;;;;;;;43.33;21.83;;;;;;;7.38;100.00;99792.94;4159176;28;20326;-70
2022/04/26 07:50:58;;;;;;;38.27;20.00;;;;;;;7.51;100.00;99789.97;4219523;28;20672;-70
2022/04/26 07:53:26;;;;;;;43.73;21.23;;;;;;;7.51;100.00;99796.09;4131808;28;20242;-69
2022/04/26 07:55:53;;;;;;;36.67;19.57;;;;;;;7.55;100.00;99801.97;4171698;28;20227;-69
2022/04/26 07:58:20;;;;;;;38.00;20.17;;;;;;;7.68;100.00;99807.81;4161732;28;21531;-70
2022/04/26 08:00:47;;;;;;;41.63;20.70;;;;;;;7.81;100.00;99808.31;4151711;28;20350;-71
2022/04/26 08:03:14;;;;;;;36.40;18.50;;;;;;;7.97;100.00;99813.03;4165085;28;20275;-70
2022/04/26 08:05:40;;;;;;;33.03;18.20;;;;;;;8.06;100.00;99815.81;4156151;28;20721;-70
2022/04/26 08:08:07;;;;;;;31.70;16.73;;;;;;;8.16;100.00;99822.75;4162148;28;20231;-70
2022/04/26 08:10:35;;;;;;;29.57;16.37;;;;;;;8.21;99.57;99820.50;4150784;28;20918;-71
2022/04/26 08:13:03;;;;;;;26.83;16.10;;;;;;;8.17;99.40;99826.22;4153314;28;21735;-68
2022/04/26 08:15:29;;;;;;;29.43;15.60;;;;;;;8.15;99.03;99825.56;4161972;28;20253;-68
2022/04/26 08:17:56;;;;;;;25.87;15.20;;;;;;;8.27;98.86;99832.34;4168273;28;21096;-70
2022/04/26 08:20:24;;;;;;;29.03;15.53;;;;;;;8.25;98.35;99832.47;4170112;28;21799;-69
2022/04/26 08:22:51;;;;;;;27.50;15.43;;;;;;;8.33;98.02;99833.56;4157140;28;21810;-74
2022/04/26 08:28:03;;;;;;;24.87;14.67;;;;;;;8.20;97.95;99844.50;4178481;28;20234;-70
2022/04/26 08:30:29;;;;;;;22.37;13.30;;;;;;;8.25;96.52;99842.25;4164705;28;20231;-70
2022/04/26 08:32:56;;;;;;;27.43;15.10;;;;;;;8.09;96.87;99844.66;4140663;28;20298;-67
2022/04/26 08:35:26;;;;;;;22.13;13.97;;;;;;;8.22;97.46;99847.84;4162818;28;20307;-70
2022/04/26 08:38:13;;;;;;;23.20;14.30;;;;;;;8.03;97.47;99844.28;4164305;28;22113;-72
2022/04/26 08:40:42;;;;;;;22.93;14.00;;;;;;;8.29;99.39;99850.72;4156771;28;21856;-74
2022/04/26 08:43:09;;;;;;;27.57;14.83;;;;;;;8.29;98.32;99856.91;4152682;28;22008;-72
2022/04/26 08:45:38;;;;;;;21.50;13.43;;;;;;;8.49;97.48;99857.66;4156114;28;21428;-71
2022/04/26 08:50:59;;;;;;;18.37;11.37;;;;;;;8.70;96.63;99859.25;4181659;28;25702;-70
2022/04/26 08:53:27;;;;;;;19.43;12.03;;;;;;;8.81;95.80;99870.53;4197503;28;20239;-70
2022/04/26 08:55:56;;;;;;;17.50;11.30;;;;;;;8.80;94.62;99863.56;4183839;28;22011;-71
2022/04/26 08:58:25;;;;;;;18.33;11.47;;;;;;;8.64;95.01;99868.66;4197904;28;20636;-69
2022/04/26 09:01:06;;;;;;;18.10;10.90;;;;;;;8.76;95.60;99871.94;4213315;28;20240;-70
2022/04/26 09:03:37;;;;;;;18.73;10.03;;;;;;;8.93;94.79;99875.63;4212146;28;20314;-70
2022/04/26 09:06:07;;;;;;;15.90;11.07;;;;;;;8.93;93.91;99872.97;4184822;28;20237;-69
2022/04/26 09:08:35;;;;;;;20.10;12.00;;;;;;;8.67;94.26;99873.66;4172939;28;20315;-69
2022/04/26 09:11:03;;;;;;;16.43;11.20;;;;;;;8.65;95.50;99880.94;4210089;28;21366;-68
2022/04/26 09:13:40;;;;;;;17.77;11.30;;;;;;;9.13;96.14;99885.16;4239691;28;22144;-69
2022/04/26 09:16:15;;;;;;;16.17;10.33;;;;;;;9.35;93.35;99891.03;4251094;28;22534;-69
2022/04/26 09:18:50;;;;;;;16.53;10.60;;;;;;;9.25;92.02;99894.56;4211695;28;20998;-70
2022/04/26 09:21:17;;;;;;;16.87;10.87;;;;;;;9.19;92.38;99895.16;4213139;28;21789;-69
2022/04/26 09:23:45;;;;;;;17.60;11.83;;;;;;;9.08;92.10;99898.00;4185930;28;21685;-72
2022/04/26 09:26:17;;;;;;;21.60;12.33;;;;;;;9.18;89.81;99893.50;4194133;28;20286;-72
2022/04/26 09:28:45;;;;;;;20.57;12.00;;;;;;;8.98;91.26;99891.94;4261446;28;20332;-69
2022/04/26 09:31:18;;;;;;;20.23;12.30;;;;;;;9.23;92.43;99893.88;4217704;28;21730;-68
2022/04/26 09:33:49;;;;;;;22.00;12.77;;;;;;;9.65;91.53;99885.31;4599237;23;20222;-68
2022/04/26 09:36:18;;;;;;;18.00;11.33;;;;;;;9.93;90.37;99891.38;4917414;28;20713;-69
2022/04/26 09:38:50;;;;;;;16.27;10.73;;;;;;;10.08;87.99;99891.66;4961928;28;21233;-67
2022/04/26 09:41:20;;;;;;;19.30;11.33;;;;;;;9.85;87.81;99891.28;4954256;28;20328;-67
2022/04/26 09:44:07;;;;;;;19.07;11.73;;;;;;;9.47;89.59;99893.28;4944550;28;20736;-67
2022/04/26 09:46:41;;;;;;;19.63;12.70;;;;;;;9.28;90.77;99902.22;4938810;28;20261;-68
2022/04/26 09:49:10;;;;;;;23.67;13.23;;;;;;;9.38;90.14;99893.38;4953754;28;20227;-68
2022/04/26 09:51:37;;;;;;;21.70;14.47;;;;;;;8.96;93.08;99891.25;4951942;28;20231;-69
2022/04/26 09:54:04;;;;;;;20.13;13.30;;;;;;;9.19;93.27;99899.63;4952965;28;20327;-68
2022/04/26 09:56:32;;;;;;;22.13;14.67;;;;;;;9.34;93.02;99905.25;4974923;28;20246;-68
2022/04/26 09:59:02;;;;;;;26.67;13.70;;;;;;;9.28;91.01;99902.22;4970863;28;20330;-69
2022/04/26 10:01:35;;;;;;;20.57;13.23;;;;;;;9.52;89.02;99898.97;4972776;28;20232;-68
2022/04/26 10:04:04;;;;;;;23.83;13.70;;;;;;;9.31;90.08;99903.75;4973521;28;20223;-67
2022/04/26 10:06:35;;;;;;;22.47;12.57;;;;;;;9.21;90.98;99902.97;4958147;28;20235;-68
2022/04/26 10:09:07;;;;;;;23.33;13.73;;;;;;;9.35;91.00;99906.94;4974434;28;20344;-68
2022/04/26 10:11:33;;;;;;;25.17;13.60;;;;;;;9.41;89.58;99906.34;4975569;28;20237;-67
2022/04/26 10:14:03;;;;;;;19.83;12.93;;;;;;;9.59;89.34;99906.34;4972771;28;20235;-66
2022/04/26 10:16:30;;;;;;;24.97;13.10;;;;;;;9.44;87.47;99914.03;4958249;28;20691;-69
2022/04/26 10:19:09;;;;;;;24.27;12.37;;;;;;;9.68;86.65;99905.44;4940373;28;20698;-67
2022/04/26 10:21:38;;;;;;;20.07;12.77;;;;;;;9.73;85.94;99908.47;4970690;28;20326;-68
2022/04/26 10:24:22;;;;;;;23.13;12.27;;;;;;;9.89;84.10;99913.09;4951677;28;20377;-68
2022/04/26 10:26:51;;;;;;;21.10;11.60;;;;;;;9.96;84.20;99913.31;4969626;28;20284;-67
2022/04/26 10:29:20;;;;;;;19.50;11.90;;;;;;;10.25;82.51;99913.03;4972076;28;20758;-67
2022/04/26 10:31:49;;;;;;;19.57;11.90;;;;;;;10.45;82.57;99919.84;4973278;28;20224;-68
2022/04/26 10:34:23;;;;;;;19.90;11.33;;;;;;;10.75;82.85;99915.03;4971594;28;20234;-68
2022/04/26 10:36:51;;;;;;;19.60;12.20;;;;;;;10.53;80.28;99925.19;4970144;28;20612;-69
2022/04/26 10:39:30;;;;;;;19.40;11.73;;;;;;;10.31;81.33;99926.56;4972567;28;20371;-69
2022/04/26 10:41:58;;;;;;;19.97;12.47;;;;;;;9.84;83.52;99920.69;4974269;28;20231;-66
2022/04/26 10:44:31;;;;;;;21.37;12.47;;;;;;;9.84;84.56;99923.34;4989253;28;20226;-68
2022/04/26 10:47:02;;;;;;;24.17;13.23;;;;;;;9.94;84.74;99921.44;4955707;28;20241;-66
2022/04/26 10:49:41;;;;;;;24.10;13.50;;;;;;;9.91;84.48;99927.06;4973476;28;21209;-67
2022/04/26 10:52:23;;;;;;;20.90;14.07;;;;;;;10.02;85.09;99926.84;4989181;28;20288;-66
2022/04/26 10:55:01;;;;;;;21.57;12.67;;;;;;;10.22;83.92;99926.66;4991288;28;20289;-68
2022/04/26 10:57:41;;;;;;;24.20;12.53;;;;;;;10.52;82.90;99934.19;4992902;28;22999;-67
2022/04/26 11:00:16;;;;;;;21.13;12.10;;;;;;;10.70;80.91;99933.28;4991320;28;20582;-66
2022/04/26 11:02:45;;;;;;;19.37;11.33;;;;;;;10.78;79.13;99926.19;4988144;28;20750;-67
2022/04/26 11:05:23;;;;;;;22.90;12.73;;;;;;;10.68;79.38;99928.13;4985859;28;20564;-69
2022/04/26 11:07:50;;;;;;;18.30;12.03;;;;;;;10.60;78.08;99937.88;4990491;28;20713;-68
2022/04/26 11:10:25;;;;;;;20.40;13.60;;;;;;;10.21;80.22;99936.44;4969919;28;20243;-67
2022/04/26 11:12:52;;;;;;;22.37;13.27;;;;;;;10.21;80.51;99930.28;4957426;28;20230;-68
2022/04/26 11:15:22;;;;;;;22.93;13.27;;;;;;;10.08;80.95;99928.03;4990529;28;20233;-68
2022/04/26 11:17:50;;;;;;;24.70;13.63;;;;;;;10.07;79.77;99927.22;4991220;28;20589;-67
2022/04/26 11:20:25;;;;;;;19.73;12.10;;;;;;;10.15;79.39;99924.59;4989622;28;20229;-68
2022/04/26 11:22:57;;;;;;;18.00;11.67;;;;;;;10.28;80.42;99931.34;4971640;28;20226;-68
2022/04/26 11:28:13;;;;;;;19.67;11.63;;;;;;;10.99;76.93;99933.75;4960470;28;20945;-68
2022/04/26 11:30:40;;;;;;;19.63;11.13;;;;;;;11.41;75.94;99938.22;4973629;28;20242;-69
2022/04/26 11:33:12;;;;;;;15.23;10.30;;;;;;;11.28;74.23;99937.84;4990470;28;20233;-69
2022/04/26 11:35:44;;;;;;;20.40;10.40;;;;;;;11.61;72.88;99936.13;4953646;28;22211;-69
2022/04/26 11:38:13;;;;;;;17.40;9.87;;;;;;;11.91;71.86;99933.84;4953860;28;20263;-68
2022/04/26 11:40:47;;;;;;;15.43;9.37;;;;;;;11.90;69.35;99942.03;4936403;28;20223;-68
2022/04/26 11:43:26;;;;;;;15.83;9.67;;;;;;;11.92;69.44;99940.03;4934622;28;20283;-68
2022/04/26 11:45:55;;;;;;;15.83;9.43;;;;;;;11.94;67.78;99941.53;4945468;28;20231;-67
2022/04/26 11:48:26;;;;;;;14.60;9.77;;;;;;;11.86;70.18;99937.97;4932106;28;20226;-69
2022/04/26 11:50:57;;;;;;;15.37;9.33;;;;;;;12.01;69.11;99939.00;4951469;28;20593;-69
2022/04/26 11:53:26;;;;;;;14.90;9.23;;;;;;;11.96;69.04;99946.69;4951280;28;20290;-65
2022/04/26 11:55:58;;;;;;;15.67;9.60;;;;;;;12.15;67.16;99943.69;4932975;28;20658;-71
2022/04/26 11:58:28;;;;;;;17.13;9.23;;;;;;;12.46;67.29;99948.34;4951811;28;20228;-68
2022/04/26 12:01:09;;;;;;;10.73;7.23;;;;;;;12.60;64.64;99944.97;4952498;28;20363;-69
2022/04/26 12:03:54;;;;;;;15.53;8.37;;;;;;;12.60;64.04;99949.47;4926174;28;20231;-69
2022/04/26 12:06:27;;;;;;;12.70;8.63;;;;;;;12.73;62.32;99943.59;4952553;28;20239;-68
2022/04/26 12:08:59;;;;;;;14.00;8.23;;;;;;;12.61;62.21;99941.28;4950978;28;20231;-70
2022/04/26 12:11:36;;;;;;;10.20;6.70;;;;;;;12.33;60.72;99945.34;4920237;28;20231;-69
2022/04/26 12:14:14;;;;;;;12.13;7.73;;;;;;;12.12;63.23;99944.00;4950800;28;20318;-68
2022/04/26 12:16:54;;;;;;;12.33;8.30;;;;;;;12.46;63.50;99946.50;4935619;28;20302;-68
2022/04/26 12:19:37;;;;;;;12.53;7.60;;;;;;;12.67;60.97;99945.94;4957078;28;20227;-66
2022/04/26 12:22:08;;;;;;;10.70;7.23;;;;;;;12.93;60.86;99952.88;4957144;28;20888;-67
2022/04/26 12:24:48;;;;;;;11.73;7.00;;;;;;;13.28;60.20;99953.44;4954909;28;20731;-69
2022/04/26 12:27:17;;;;;;;14.67;8.50;;;;;;;13.58;60.00;99945.59;4953641;28;20516;-69
2022/04/26 12:29:48;;;;;;;16.57;8.60;;;;;;;13.16;60.87;99947.63;4927806;28;20287;-70
2022/04/26 12:32:18;;;;;;;12.53;6.80;;;;;;;13.40;60.35;99944.03;4951055;28;20702;-68
2022/04/26 12:34:50;;;;;;;10.53;6.87;;;;;;;13.03;59.64;99942.81;4936787;28;20960;-69
2022/04/26 12:37:29;;;;;;;10.80;7.63;;;;;;;12.51;60.97;99939.81;4968650;28;20223;-68
2022/04/26 12:40:09;;;;;;;15.03;8.67;;;;;;;12.21;62.31;99943.00;4970958;28;20337;-73
2022/04/26 12:42:40;;;;;;;12.87;8.37;;;;;;;12.39;61.65;99936.66;4967436;28;20743;-68
2022/04/26 12:45:24;;;;;;;12.90;8.47;;;;;;;12.72;62.36;99942.75;4971406;28;20770;-66
2022/04/26 12:50:50;;;;;;;13.37;8.10;;;;;;;12.63;61.60;99938.44;4969820;28;20687;-68
2022/04/26 12:53:34;;;;;;;15.83;8.63;;;;;;;12.76;60.74;99941.44;4969177;28;20227;-67
2022/04/26 12:56:09;;;;;;;14.20;9.20;;;;;;;12.86;61.03;99942.06;4969205;28;20223;-69
2022/04/26 12:58:37;;;;;;;17.13;8.80;;;;;;;12.87;61.47;99940.22;4971099;28;20314;-69
2022/04/26 13:01:06;;;;;;;11.57;7.57;;;;;;;13.03;61.23;99936.66;4972107;28;20264;-70
2022/04/26 13:03:33;;;;;;;13.00;8.13;;;;;;;12.70;60.72;99938.59;4974274;28;20219;-68
2022/04/26 13:06:09;;;;;;;14.97;8.30;;;;;;;12.95;59.35;99942.03;4963556;28;20650;-71
2022/04/26 13:08:59;;;;;;;14.60;9.03;;;;;;;12.97;59.22;99937.34;4971933;28;20716;-69
2022/04/26 13:11:32;;;;;;;10.77;7.13;;;;;;;12.79;58.29;99937.59;4973982;28;20231;-68
2022/04/26 13:13:58;;;;;;;10.70;6.23;;;;;;;12.75;57.72;99941.59;4971542;28;20231;-68
2022/04/26 13:16:25;;;;;;;9.37;6.03;;;;;;;12.27;58.44;99938.00;4971265;28;20975;-71
2022/04/26 13:18:52;;;;;;;12.87;6.47;;;;;;;12.12;60.00;99927.19;4968013;28;20231;-68
2022/04/26 13:21:18;;;;;;;10.23;6.17;;;;;;;12.21;59.71;99929.66;4970965;28;20354;-70
2022/04/26 13:23:45;;;;;;;12.60;6.47;;;;;;;11.96;59.95;99926.19;4971436;28;20814;-68
2022/04/26 13:26:12;;;;;;;14.63;6.90;;;;;;;12.00;60.53;99935.50;4972119;28;20255;-68
2022/04/26 13:28:41;;;;;;;9.90;6.47;;;;;;;11.82;60.81;99927.66;4973303;28;20229;-67
2022/04/26 13:31:08;;;;;;;9.80;6.10;;;;;;;12.36;59.44;99931.66;4973038;28;20233;-68
2022/04/26 13:33:35;;;;;;;9.33;6.13;;;;;;;12.31;60.50;99926.81;4953876;28;20250;-66
2022/04/26 13:36:02;;;;;;;12.50;6.20;;;;;;;12.31;60.65;99931.31;4972118;28;20298;-68
2022/04/26 13:38:29;;;;;;;12.10;6.50;;;;;;;12.43;60.74;99938.84;4972553;28;20242;-68
2022/04/26 13:40:59;;;;;;;10.23;6.00;;;;;;;12.31;60.58;99926.81;4973411;28;20314;-68
2022/04/26 13:43:26;;;;;;;10.57;6.07;;;;;;;12.60;59.60;99934.28;4972450;28;20700;-68
2022/04/26 13:46:13;;;;;;;9.83;5.83;;;;;;;12.83;57.53;99939.72;4971748;28;20238;-68
2022/04/26 13:48:39;;;;;;;10.50;6.70;;;;;;;12.88;56.49;99947.22;4971168;28;20254;-66
2022/04/26 13:51:06;;;;;;;9.63;6.07;;;;;;;13.00;56.81;99945.84;4972105;28;20279;-66
2022/04/26 13:53:33;;;;;;;9.07;6.23;;;;;;;13.12;56.24;99945.47;4973334;28;20227;-69
2022/04/26 13:56:00;;;;;;;9.90;5.80;;;;;;;13.28;56.21;99948.09;4972841;28;20228;-69
2022/04/26 13:58:27;;;;;;;10.13;6.33;;;;;;;13.20;56.22;99948.91;4969083;28;20746;-69
2022/04/26 14:00:54;;;;;;;12.90;6.73;;;;;;;12.88;58.36;99947.22;4971786;28;20234;-69
2022/04/26 14:03:21;;;;;;;9.97;6.17;;;;;;;12.95;57.75;99948.22;4970622;28;20235;-68
2022/04/26 14:05:49;;;;;;;15.37;7.50;;;;;;;13.20;57.69;99956.09;4971055;28;20282;-69
2022/04/26 14:08:20;;;;;;;8.33;5.77;;;;;;;12.86;58.37;99944.72;4965531;28;20607;-68
2022/04/26 14:10:47;;;;;;;10.67;6.50;;;;;;;12.94;57.36;99954.53;4971158;28;20356;-70
2022/04/26 14:13:14;;;;;;;9.73;6.67;;;;;;;12.75;58.57;99944.25;4972039;28;20583;-67
2022/04/26 14:23:56;;;;;;;9.97;5.80;;;;;;;13.07;56.93;99944.16;4966979;28;20273;-68
2022/04/26 14:26:23;;;;;;;9.73;5.67;;;;;;;12.73;58.66;99944.41;4965913;28;20318;-70
2022/04/26 14:28:50;;;;;;;10.70;6.00;;;;;;;12.50;59.13;99938.13;4990207;28;20254;-70
2022/04/26 14:31:16;;;;;;;8.57;5.87;;;;;;;12.50;59.01;99944.31;4992377;28;20864;-69
2022/04/26 14:33:43;;;;;;;10.43;6.10;;;;;;;12.45;59.31;99938.66;4990869;28;20973;-72
2022/04/26 14:36:09;;;;;;;10.47;6.53;;;;;;;12.45;59.41;99933.31;4986755;28;20270;-69
2022/04/26 14:38:36;;;;;;;12.27;5.97;;;;;;;12.46;59.01;99938.47;4954860;28;20697;-69
2022/04/26 14:41:03;;;;;;;10.17;6.43;;;;;;;12.17;59.83;99941.66;4984281;28;20676;-67
2022/04/26 14:43:30;;;;;;;11.73;7.23;;;;;;;12.04;60.71;99938.69;4972099;28;20238;-69
2022/04/26 14:45:57;;;;;;;9.30;6.30;;;;;;;11.67;61.23;99934.63;4987683;28;20655;-69
2022/04/26 14:48:24;;;;;;;10.90;6.30;;;;;;;11.71;62.81;99938.63;4986446;28;20617;-71
2022/04/26 14:50:58;;;;;;;9.90;6.33;;;;;;;11.98;61.70;99939.34;4989155;28;20626;-69
2022/04/26 14:53:25;;;;;;;9.07;5.87;;;;;;;11.88;61.89;99933.34;4984068;28;20598;-68
2022/04/26 14:56:09;;;;;;;12.87;5.20;;;;;;;11.88;61.23;99936.84;4987575;28;20232;-67
2022/04/26 14:59:00;;;;;;;9.50;6.00;;;;;;;11.82;62.19;99935.66;4987742;28;20280;-69
2022/04/26 15:01:34;;;;;;;10.80;6.03;;;;;;;11.77;61.97;99948.63;4987608;28;20280;-68
2022/04/26 15:04:01;;;;;;;9.73;5.30;;;;;;;11.80;62.26;99945.66;4969241;28;20277;-68
2022/04/26 15:06:27;;;;;;;8.07;6.10;;;;;;;11.60;62.88;99945.09;4988374;28;21240;-68
2022/04/26 15:11:39;;;;;;;8.37;5.43;;;;;;;11.80;63.53;99947.47;4987920;28;20389;-69
2022/04/26 15:16:51;;;;;;;9.13;5.77;;;;;;;11.63;64.31;99949.25;4987177;28;20215;-69
2022/04/26 15:19:17;;;;;;;10.90;5.60;;;;;;;11.56;64.77;99956.25;4972930;28;20223;-74
2022/04/26 15:21:44;;;;;;;8.80;6.10;;;;;;;11.43;65.83;99958.56;4988225;28;20240;-68
2022/04/26 15:24:11;;;;;;;10.33;5.67;;;;;;;11.31;66.75;99950.88;4988970;28;20229;-70
2022/04/26 15:26:39;;;;;;;11.30;5.20;;;;;;;11.35;66.69;99957.53;4987741;28;20996;-67
2022/04/26 15:29:05;;;;;;;9.00;5.47;;;;;;;11.31;66.62;99961.53;4988523;28;20253;-69
2022/04/26 15:31:34;;;;;;;10.20;5.90;;;;;;;11.19;68.16;99960.13;4969904;28;20227;-69
2022/04/26 15:34:02;;;;;;;10.60;6.40;;;;;;;10.83;68.54;99965.63;4983974;28;20265;-69
2022/04/26 15:36:29;;;;;;;10.70;5.70;;;;;;;10.74;69.14;99959.41;4988474;28;20214;-68
2022/04/26 15:38:58;;;;;;;8.00;5.43;;;;;;;10.91;69.35;99962.16;4986090;28;20254;-72